Time;durP1;ratioP1;P1;durP2;ratioP2;P2;SDS_P1;SDS_P2;PMS_P1;PMS_P2;Temp;Humidity;BMP_temperature;BMP_pressure;BME280_temperature;BME280_humidity;BME280_pressure;Samples;Min_cycle;Max_cycle;Signal;HPM_P1;HPM_P2
2021/06/08 00:02:09;;;;;;;3.33;2.90;;;25.50;47.90;;;;;;5020581;28;20202;-71
2021/06/08 00:04:39;;;;;;;3.30;3.00;;;25.50;47.90;;;;;;5007815;28;20247;-71
2021/06/08 00:07:11;;;;;;;3.43;3.00;;;25.50;47.90;;;;;;5006249;28;20265;-71
2021/06/08 00:09:43;;;;;;;5.87;3.07;;;25.50;47.90;;;;;;5004070;28;20200;-71
2021/06/08 00:12:15;;;;;;;3.23;2.93;;;25.50;47.90;;;;;;5004441;28;20204;-71
2021/06/08 00:14:53;;;;;;;3.30;3.00;;;25.50;48.00;;;;;;5001621;28;20693;-71
2021/06/08 00:17:24;;;;;;;3.20;2.80;;;25.50;48.10;;;;;;5014366;28;20199;-71
2021/06/08 00:19:54;;;;;;;3.40;3.10;;;25.50;48.10;;;;;;5013007;28;20202;-71
2021/06/08 00:22:26;;;;;;;5.33;3.60;;;25.50;48.10;;;;;;5015601;28;20203;-71
2021/06/08 00:24:59;;;;;;;3.40;3.10;;;25.40;48.00;;;;;;4988279;28;20196;-71
2021/06/08 00:27:33;;;;;;;4.63;3.40;;;25.40;48.00;;;;;;5003336;28;20195;-71
2021/06/08 00:30:03;;;;;;;4.30;3.20;;;25.40;48.00;;;;;;4998989;28;20196;-71
2021/06/08 00:32:37;;;;;;;4.23;3.30;;;25.40;48.00;;;;;;5005609;28;20192;-71
2021/06/08 00:35:10;;;;;;;3.17;2.90;;;25.40;48.00;;;;;;5028043;28;20280;-71
2021/06/08 00:37:40;;;;;;;3.50;3.17;;;25.40;48.00;;;;;;5008344;28;20227;-71
2021/06/08 00:40:11;;;;;;;4.50;3.70;;;25.40;48.00;;;;;;4982809;28;20626;-71
2021/06/08 00:42:46;;;;;;;3.33;3.03;;;25.40;47.90;;;;;;5005565;28;20320;-71
2021/06/08 00:45:17;;;;;;;3.50;3.20;;;25.40;48.50;;;;;;4988070;28;20614;-71
2021/06/08 00:47:49;;;;;;;3.53;3.23;;;25.40;47.90;;;;;;5013457;28;20257;-71
2021/06/08 00:50:31;;;;;;;3.27;2.90;;;25.40;48.00;;;;;;5018260;28;20283;-71
2021/06/08 00:53:00;;;;;;;4.23;3.30;;;25.40;47.90;;;;;;5012702;28;20195;-71
2021/06/08 00:55:28;;;;;;;4.33;3.07;;;25.30;47.70;;;;;;5002029;28;20223;-71
2021/06/08 00:57:58;;;;;;;3.10;2.90;;;25.30;47.70;;;;;;4992583;28;20660;-71
2021/06/08 01:00:28;;;;;;;3.50;3.20;;;25.40;47.70;;;;;;5012930;28;20214;-71
2021/06/08 01:02:58;;;;;;;3.10;2.90;;;25.30;47.50;;;;;;5005393;28;20763;-71
2021/06/08 01:05:28;;;;;;;4.53;3.00;;;25.30;47.50;;;;;;5007546;28;20207;-71
2021/06/08 01:07:59;;;;;;;3.70;3.23;;;25.30;47.40;;;;;;5015475;28;20202;-71
2021/06/08 01:10:30;;;;;;;3.23;2.93;;;25.30;47.40;;;;;;4989933;28;20244;-71
2021/06/08 01:13:02;;;;;;;3.40;3.10;;;25.30;47.30;;;;;;5026071;28;20530;-71
2021/06/08 01:15:43;;;;;;;3.40;3.10;;;25.30;47.30;;;;;;5006833;28;20617;-71
2021/06/08 01:18:13;;;;;;;4.60;3.43;;;25.30;47.30;;;;;;4986507;28;20212;-71
2021/06/08 01:20:43;;;;;;;3.30;3.00;;;25.30;47.20;;;;;;5004314;28;20722;-71
2021/06/08 01:23:15;;;;;;;3.40;3.10;;;25.20;47.10;;;;;;5008913;28;20279;-71
2021/06/08 01:25:49;;;;;;;3.90;2.90;;;25.20;47.10;;;;;;5010703;28;20896;-71
2021/06/08 01:28:19;;;;;;;3.37;2.93;;;25.20;47.10;;;;;;5008932;28;20214;-71
2021/06/08 01:30:50;;;;;;;3.53;3.23;;;25.20;47.10;;;;;;4998731;28;20205;-70
2021/06/08 01:33:23;;;;;;;3.20;3.00;;;25.20;47.10;;;;;;5000152;28;20215;-71
2021/06/08 01:35:54;;;;;;;3.57;3.27;;;25.20;47.10;;;;;;5007843;28;20200;-71
2021/06/08 01:38:22;;;;;;;4.57;3.10;;;25.20;47.10;;;;;;5006117;28;20263;-71
2021/06/08 01:40:53;;;;;;;3.50;3.20;;;25.20;47.10;;;;;;5009685;28;20208;-71
2021/06/08 01:43:23;;;;;;;3.17;2.87;;;25.10;47.00;;;;;;4993432;28;20244;-70
2021/06/08 01:45:53;;;;;;;3.80;2.87;;;25.10;47.00;;;;;;4992556;28;20991;-70
2021/06/08 01:48:24;;;;;;;3.10;2.77;;;25.10;46.90;;;;;;5002040;28;20581;-70
2021/06/08 01:50:52;;;;;;;3.30;3.00;;;25.10;46.90;;;;;;4997644;28;20211;-70
2021/06/08 01:53:54;;;;;;;3.07;2.87;;;25.10;46.80;;;;;;4985453;28;20267;-70
2021/06/08 01:56:29;;;;;;;3.23;2.93;;;25.10;46.80;;;;;;4988883;28;20204;-70
2021/06/08 01:59:27;;;;;;;2.90;2.70;;;25.10;46.80;;;;;;5008317;28;20195;-70
2021/06/08 02:02:16;;;;;;;3.40;2.90;;;25.10;46.80;;;;;;5004520;28;20208;-70
2021/06/08 02:05:10;;;;;;;4.03;2.30;;;25.10;46.70;;;;;;5009187;28;20846;-70
2021/06/08 02:08:05;;;;;;;5.63;2.97;;;25.10;46.70;;;;;;5006220;28;20292;-71
2021/06/08 02:10:53;;;;;;;4.83;3.23;;;25.10;46.70;;;;;;4463484;28;15052800;-71
2021/06/08 02:13:47;;;;;;;3.13;2.93;;;25.00;46.60;;;;;;4949017;28;20294;-70
2021/06/08 02:16:53;;;;;;;3.27;3.00;;;25.00;46.60;;;;;;5006768;28;20804;-70
2021/06/08 02:19:24;;;;;;;3.90;2.83;;;25.00;47.20;;;;;;4997077;28;20215;-71
2021/06/08 02:22:05;;;;;;;2.70;2.50;;;25.00;46.60;;;;;;4995282;28;20641;-70
2021/06/08 02:24:37;;;;;;;3.10;2.40;;;25.00;46.60;;;;;;5006434;28;20269;-70
2021/06/08 02:27:09;;;;;;;5.00;2.47;;;25.00;46.60;;;;;;5012259;28;20262;-71
2021/06/08 02:29:41;;;;;;;2.80;2.60;;;25.00;46.60;;;;;;4994443;28;20196;-70
2021/06/08 02:32:11;;;;;;;3.30;2.70;;;25.00;46.60;;;;;;4990759;28;20192;-71
2021/06/08 02:34:44;;;;;;;2.67;2.43;;;25.00;46.80;;;;;;5008050;28;20235;-71
2021/06/08 02:37:20;;;;;;;2.50;2.30;;;24.90;46.70;;;;;;5007805;28;20212;-71
2021/06/08 02:39:51;;;;;;;3.70;2.87;;;25.00;46.70;;;;;;4994056;28;20214;-71
2021/06/08 02:42:21;;;;;;;2.50;2.30;;;25.00;46.70;;;;;;4978815;28;20228;-71
2021/06/08 02:44:50;;;;;;;3.97;2.60;;;25.00;46.60;;;;;;5007385;28;20568;-71
2021/06/08 02:47:20;;;;;;;5.07;2.30;;;25.00;46.60;;;;;;5002531;28;20892;-71
2021/06/08 02:50:04;;;;;;;2.87;2.67;;;24.90;46.50;;;;;;5009161;28;20258;-70
2021/06/08 02:52:38;;;;;;;3.30;2.40;;;24.90;46.50;;;;;;4988721;28;20196;-70
2021/06/08 02:55:10;;;;;;;2.73;2.37;;;24.90;46.40;;;;;;4974832;28;20210;-70
2021/06/08 02:57:44;;;;;;;3.23;2.10;;;24.90;46.40;;;;;;5004442;28;20210;-70
2021/06/08 03:00:25;;;;;;;2.50;2.30;;;24.90;46.40;;;;;;4995497;28;20829;-70
2021/06/08 03:03:16;;;;;;;2.43;2.23;;;24.90;46.40;;;;;;5011154;28;20196;-70
2021/06/08 03:06:02;;;;;;;3.37;2.47;;;24.90;46.30;;;;;;5006617;28;20283;-70
2021/06/08 03:08:53;;;;;;;2.73;2.40;;;24.90;46.30;;;;;;4982503;28;20653;-70
2021/06/08 03:11:25;;;;;;;2.53;2.33;;;24.90;46.30;;;;;;4999884;28;20236;-71
2021/06/08 03:13:55;;;;;;;3.50;2.20;;;24.90;46.30;;;;;;5004480;28;20215;-70
2021/06/08 03:16:40;;;;;;;3.63;2.47;;;24.90;46.30;;;;;;4992830;28;20215;-70
2021/06/08 03:19:16;;;;;;;3.53;2.40;;;24.80;46.20;;;;;;5008343;28;20640;-70
2021/06/08 03:21:50;;;;;;;3.10;2.33;;;24.80;46.20;;;;;;4978048;28;20193;-70
2021/06/08 03:24:33;;;;;;;2.97;2.40;;;24.80;46.20;;;;;;5005974;28;20302;-71
2021/06/08 03:27:03;;;;;;;5.63;2.37;;;24.80;46.20;;;;;;4998133;28;20624;-71
2021/06/08 03:29:34;;;;;;;2.53;2.33;;;24.80;46.20;;;;;;5004567;28;20214;-70
2021/06/08 03:32:06;;;;;;;5.30;2.50;;;24.80;46.20;;;;;;5010488;28;20568;-71
2021/06/08 03:34:37;;;;;;;2.60;2.40;;;24.80;46.10;;;;;;4995278;28;21009;-71
2021/06/08 03:37:13;;;;;;;3.70;2.37;;;24.80;46.10;;;;;;4988924;28;20531;-71
2021/06/08 03:39:51;;;;;;;3.90;2.30;;;24.80;46.10;;;;;;4995585;28;20668;-71
2021/06/08 03:42:22;;;;;;;3.87;2.60;;;24.70;46.00;;;;;;5005691;28;20226;-71
2021/06/08 03:44:50;;;;;;;3.43;2.60;;;24.70;46.00;;;;;;5009617;28;20200;-71
2021/06/08 03:47:21;;;;;;;2.50;2.30;;;24.70;46.00;;;;;;5005010;28;20184;-71
2021/06/08 03:49:55;;;;;;;5.93;3.07;;;24.70;46.00;;;;;;5004558;28;20232;-71
2021/06/08 03:52:28;;;;;;;3.43;2.43;;;24.70;46.00;;;;;;4997714;28;20231;-71
2021/06/08 03:54:58;;;;;;;3.30;3.00;;;24.70;45.90;;;;;;4990848;28;20281;-70
2021/06/08 03:57:32;;;;;;;2.73;2.53;;;24.70;45.90;;;;;;5010151;28;20203;-71
2021/06/08 04:00:14;;;;;;;2.33;2.03;;;24.70;45.90;;;;;;4989126;28;20208;-71
2021/06/08 04:02:47;;;;;;;3.57;2.40;;;24.70;45.90;;;;;;4992454;28;20211;-71
2021/06/08 04:05:18;;;;;;;2.67;2.20;;;24.70;46.00;;;;;;5002228;28;20307;-71
2021/06/08 04:07:51;;;;;;;2.60;2.40;;;24.70;45.90;;;;;;5006199;28;20214;-71
2021/06/08 04:10:20;;;;;;;2.40;2.20;;;24.70;45.90;;;;;;4998561;28;20237;-70
2021/06/08 04:12:51;;;;;;;2.70;2.47;;;24.70;45.90;;;;;;5004924;28;20191;-70
2021/06/08 04:15:22;;;;;;;4.63;2.50;;;24.70;45.90;;;;;;5000004;28;20210;-71
2021/06/08 04:17:52;;;;;;;3.03;2.50;;;24.70;45.90;;;;;;5003287;28;20204;-71
2021/06/08 04:20:27;;;;;;;2.60;2.40;;;24.60;45.80;;;;;;5003092;28;20508;-71
2021/06/08 04:22:59;;;;;;;3.50;2.30;;;24.60;45.80;;;;;;4992337;28;20207;-71
2021/06/08 04:25:32;;;;;;;2.87;2.53;;;24.70;45.90;;;;;;4953347;28;20276;-71
2021/06/08 04:28:02;;;;;;;2.50;2.30;;;24.60;45.90;;;;;;4977569;28;20689;-71
2021/06/08 04:30:35;;;;;;;3.70;2.60;;;24.60;45.90;;;;;;4979161;28;20215;-71
2021/06/08 04:38:43;;;;;;;3.70;2.53;;;24.60;46.00;;;;;;4983966;28;20207;-70
2021/06/08 04:41:33;;;;;;;3.20;2.30;;;24.60;46.00;;;;;;4999399;28;20214;-72
2021/06/08 04:44:04;;;;;;;2.87;2.10;;;24.60;46.00;;;;;;4976687;28;20234;-71
2021/06/08 04:46:38;;;;;;;2.97;2.40;;;24.60;46.60;;;;;;4999038;28;20204;-69
2021/06/08 04:49:08;;;;;;;7.23;2.30;;;24.60;47.10;;;;;;4998488;28;20200;-70
2021/06/08 04:51:36;;;;;;;3.13;2.40;;;24.60;47.10;;;;;;5001780;28;20197;-70
2021/06/08 04:54:06;;;;;;;3.00;2.17;;;24.60;47.00;;;;;;4999609;28;20675;-69
2021/06/08 04:56:34;;;;;;;3.73;2.33;;;24.60;46.90;;;;;;5002279;28;20849;-69
2021/06/08 04:59:06;;;;;;;17.63;6.27;;;24.60;46.80;;;;;;4994735;28;20238;-70
2021/06/08 05:01:50;;;;;;;38.10;11.87;;;24.60;47.30;;;;;;5001330;28;20212;-70
2021/06/08 05:04:28;;;;;;;30.90;9.40;;;24.60;49.30;;;;;;4972780;28;20366;-70
2021/06/08 05:07:00;;;;;;;23.20;7.03;;;24.60;49.30;;;;;;5013934;28;20205;-70
2021/06/08 05:09:50;;;;;;;19.37;5.87;;;24.70;49.10;;;;;;4993049;28;20195;-70
2021/06/08 05:12:28;;;;;;;12.83;5.10;;;24.60;48.70;;;;;;4996212;28;20202;-70
2021/06/08 05:15:11;;;;;;;6.60;4.20;;;24.60;48.40;;;;;;5002109;28;20199;-70
2021/06/08 05:17:40;;;;;;;6.27;3.83;;;24.60;48.10;;;;;;5006706;28;20561;-70
2021/06/08 05:20:15;;;;;;;5.90;3.83;;;24.60;48.10;;;;;;5010366;28;20199;-70
2021/06/08 05:22:50;;;;;;;5.00;3.57;;;24.60;48.00;;;;;;5009485;28;20327;-70
2021/06/08 05:25:19;;;;;;;5.63;4.00;;;24.60;47.70;;;;;;4988526;28;20507;-70
2021/06/08 05:27:48;;;;;;;4.50;3.67;;;24.50;47.40;;;;;;4972786;28;20708;-70
2021/06/08 05:30:17;;;;;;;3.80;3.43;;;24.50;47.20;;;;;;4989138;28;20203;-70
2021/06/08 05:32:50;;;;;;;13.27;3.63;;;24.50;47.10;;;;;;4976319;28;20185;-69
2021/06/08 05:35:28;;;;;;;16.20;6.83;;;24.50;48.10;;;;;;4992626;28;20199;-69
2021/06/08 05:38:04;;;;;;;13.83;6.27;;;24.50;49.40;;;;;;4999631;28;20184;-69
2021/06/08 05:40:39;;;;;;;11.17;5.07;;;24.60;48.50;;;;;;4992643;28;20199;-69
2021/06/08 05:43:12;;;;;;;8.13;4.13;;;24.50;47.90;;;;;;4999065;28;20203;-70
2021/06/08 05:45:45;;;;;;;7.37;4.27;;;24.60;47.60;;;;;;4999356;28;20214;-69
2021/06/08 05:48:22;;;;;;;4.90;3.90;;;24.50;47.40;;;;;;4998572;28;20688;-69
2021/06/08 05:50:54;;;;;;;3.90;3.50;;;24.50;47.20;;;;;;4996521;28;20930;-69
2021/06/08 05:53:26;;;;;;;4.33;3.63;;;24.50;47.10;;;;;;5002436;28;20199;-67
2021/06/08 05:55:57;;;;;;;6.43;3.60;;;24.50;47.20;;;;;;5000431;28;20295;-66
2021/06/08 05:58:31;;;;;;;4.70;3.80;;;24.60;47.70;;;;;;5008009;28;20263;-68
2021/06/08 06:01:04;;;;;;;5.37;3.83;;;24.60;47.30;;;;;;4993203;28;20220;-68
2021/06/08 06:03:37;;;;;;;6.27;3.10;;;24.60;47.20;;;;;;4971593;28;20318;-67
2021/06/08 06:06:08;;;;;;;6.10;3.33;;;24.60;47.30;;;;;;4992165;28;20242;-67
2021/06/08 06:08:49;;;;;;;3.20;2.90;;;24.70;47.20;;;;;;4987629;28;20197;-67
2021/06/08 06:11:20;;;;;;;3.73;2.90;;;24.70;47.10;;;;;;4988528;28;20236;-67
2021/06/08 06:13:54;;;;;;;7.10;3.40;;;24.70;47.20;;;;;;4983605;28;20819;-68
2021/06/08 06:16:24;;;;;;;4.93;2.93;;;24.70;47.00;;;;;;4972483;28;20204;-66
2021/06/08 06:18:54;;;;;;;4.57;3.30;;;24.70;47.30;;;;;;4986150;28;20196;-66
2021/06/08 06:21:25;;;;;;;6.07;2.93;;;24.70;47.20;;;;;;4984239;28;20199;-66
2021/06/08 06:23:54;;;;;;;6.20;3.63;;;24.80;47.20;;;;;;4976633;28;20193;-65
2021/06/08 06:26:25;;;;;;;3.93;3.53;;;24.90;47.10;;;;;;4982690;28;20226;-72
2021/06/08 06:29:00;;;;;;;4.97;3.97;;;24.90;46.90;;;;;;4990119;28;20196;-69
2021/06/08 06:31:31;;;;;;;7.80;3.83;;;24.90;46.80;;;;;;4973855;28;20232;-69
2021/06/08 06:33:59;;;;;;;6.73;3.40;;;25.00;46.80;;;;;;4972356;28;20228;-66
2021/06/08 06:36:36;;;;;;;6.67;3.90;;;25.00;47.00;;;;;;4989586;28;20215;-68
2021/06/08 06:39:10;;;;;;;4.60;3.63;;;25.00;46.80;;;;;;4976331;28;20225;-66
2021/06/08 06:41:50;;;;;;;5.23;3.60;;;25.00;46.80;;;;;;4981860;28;20203;-68
2021/06/08 06:44:22;;;;;;;6.13;4.40;;;25.10;48.50;;;;;;4994249;28;20215;-69
2021/06/08 06:46:51;;;;;;;5.97;4.90;;;25.10;51.40;;;;;;4994221;28;20209;-66
2021/06/08 06:49:24;;;;;;;6.77;4.40;;;25.10;51.40;;;;;;4976026;28;20210;-66
2021/06/08 06:51:56;;;;;;;6.17;4.83;;;25.20;51.00;;;;;;4992544;28;20203;-68
2021/06/08 06:54:28;;;;;;;6.43;4.47;;;25.20;50.50;;;;;;4975767;28;20765;-69
2021/06/08 06:57:00;;;;;;;5.23;4.80;;;25.20;49.90;;;;;;4961739;28;20243;-68
2021/06/08 06:59:27;;;;;;;7.37;5.23;;;25.20;49.60;;;;;;4967655;28;20219;-68
2021/06/08 07:01:57;;;;;;;5.20;4.70;;;25.20;49.20;;;;;;4973911;28;20204;-68
2021/06/08 07:04:28;;;;;;;7.60;4.43;;;25.20;49.00;;;;;;4981663;28;20216;-67
2021/06/08 07:07:00;;;;;;;5.73;5.13;;;25.30;48.90;;;;;;4980359;28;20192;-69
2021/06/08 07:09:32;;;;;;;6.07;5.53;;;25.30;49.00;;;;;;4978576;28;20200;-66
2021/06/08 07:12:07;;;;;;;8.17;5.37;;;25.30;48.90;;;;;;4996297;28;20191;-66
2021/06/08 07:14:46;;;;;;;6.43;5.83;;;25.30;48.80;;;;;;4992270;28;20267;-66
2021/06/08 07:17:18;;;;;;;8.20;6.03;;;25.30;48.80;;;;;;4983413;28;20269;-68
2021/06/08 07:19:47;;;;;;;9.37;5.93;;;25.30;48.80;;;;;;4971310;28;20363;-68
2021/06/08 07:22:19;;;;;;;9.80;6.90;;;25.30;48.70;;;;;;4981863;28;20206;-66
2021/06/08 07:24:52;;;;;;;11.03;7.00;;;25.30;48.50;;;;;;4989230;28;20212;-68
2021/06/08 07:27:24;;;;;;;7.87;6.20;;;25.30;48.50;;;;;;4979328;28;20667;-66
2021/06/08 07:29:56;;;;;;;8.50;5.07;;;25.30;48.50;;;;;;4992123;28;20209;-65
2021/06/08 07:32:40;;;;;;;9.17;5.23;;;25.30;48.90;;;;;;4970186;28;20196;-66
2021/06/08 07:35:50;;;;;;;6.23;4.50;;;25.30;48.60;;;;;;4986922;28;20852;-66
2021/06/08 07:38:22;;;;;;;8.30;4.30;;;25.40;48.80;;;;;;4984383;28;20696;-64
2021/06/08 07:41:09;;;;;;;7.20;4.60;;;25.50;48.90;;;;;;4968189;28;20274;-68
2021/06/08 07:44:11;;;;;;;5.27;4.73;;;25.50;48.40;;;;;;4986005;28;20189;-68
2021/06/08 07:46:41;;;;;;;7.60;5.03;;;25.50;48.50;;;;;;4987782;28;20314;-66
2021/06/08 07:49:13;;;;;;;5.20;4.70;;;25.50;48.30;;;;;;4986953;28;20235;-66
2021/06/08 07:51:44;;;;;;;4.87;4.43;;;25.60;48.20;;;;;;4970037;28;20387;-66
2021/06/08 07:54:16;;;;;;;5.33;4.83;;;25.60;48.20;;;;;;4988229;28;20218;-67
2021/06/08 07:56:52;;;;;;;8.70;5.23;;;25.60;48.00;;;;;;4968676;28;20657;-67
2021/06/08 07:59:22;;;;;;;8.03;4.33;;;25.60;48.20;;;;;;4990280;28;20211;-69
2021/06/08 08:01:53;;;;;;;5.67;3.57;;;25.60;48.20;;;;;;4952061;28;20209;-66
2021/06/08 08:04:25;;;;;;;7.87;3.60;;;25.60;48.20;;;;;;4975592;28;20219;-67
2021/06/08 08:06:58;;;;;;;6.20;3.63;;;25.70;48.10;;;;;;4986433;28;20239;-66
2021/06/08 08:09:30;;;;;;;4.67;3.40;;;25.70;48.20;;;;;;4984773;28;20208;-68
2021/06/08 08:12:00;;;;;;;4.67;3.33;;;25.70;48.00;;;;;;4944728;28;20210;-68
2021/06/08 08:14:32;;;;;;;5.93;3.70;;;25.70;47.90;;;;;;4946426;28;20232;-66
2021/06/08 08:17:06;;;;;;;4.60;3.80;;;25.80;47.80;;;;;;4958324;28;20295;-66
2021/06/08 08:19:40;;;;;;;5.90;3.00;;;25.80;47.70;;;;;;4958194;28;20283;-66
2021/06/08 08:22:12;;;;;;;5.90;3.20;;;25.80;47.70;;;;;;4945916;28;20201;-67
2021/06/08 08:24:41;;;;;;;4.43;3.00;;;25.90;47.80;;;;;;4971292;28;20203;-67
2021/06/08 08:27:13;;;;;;;10.60;3.30;;;25.90;47.70;;;;;;4957530;28;20228;-67
2021/06/08 08:29:48;;;;;;;6.87;2.67;;;25.90;47.60;;;;;;4939117;28;20218;-68
2021/06/08 08:32:18;;;;;;;4.20;2.70;;;25.90;47.70;;;;;;4964085;28;20863;-64
2021/06/08 08:34:57;;;;;;;5.50;2.80;;;26.00;48.30;;;;;;4941258;28;20644;-67
2021/06/08 08:37:26;;;;;;;5.80;3.00;;;26.00;47.60;;;;;;4957328;28;20205;-65
2021/06/08 08:39:56;;;;;;;5.63;4.03;;;26.10;47.70;;;;;;4964311;28;20189;-65
2021/06/08 08:42:28;;;;;;;4.73;3.10;;;26.10;47.20;;;;;;4965365;28;20542;-69
2021/06/08 08:44:57;;;;;;;2.90;2.57;;;26.10;47.30;;;;;;4983173;28;20690;-68
2021/06/08 08:47:30;;;;;;;4.63;3.07;;;26.10;47.30;;;;;;4963603;28;20201;-64
2021/06/08 08:49:59;;;;;;;6.73;3.43;;;26.10;47.10;;;;;;4943283;28;20212;-67
2021/06/08 08:52:29;;;;;;;6.93;3.57;;;26.20;47.10;;;;;;4963588;28;20200;-69
2021/06/08 08:55:03;;;;;;;4.30;3.40;;;26.20;47.10;;;;;;4941445;28;20208;-67
2021/06/08 08:57:32;;;;;;;5.70;3.60;;;26.20;47.00;;;;;;4956917;28;20249;-66
2021/06/08 09:00:05;;;;;;;6.97;3.00;;;26.30;46.50;;;;;;4968718;28;20207;-65
2021/06/08 09:02:43;;;;;;;6.73;3.10;;;26.30;47.00;;;;;;4963146;28;20619;-70
2021/06/08 09:05:13;;;;;;;7.47;3.07;;;26.30;46.80;;;;;;4974779;28;20221;-68
2021/06/08 09:07:46;;;;;;;4.87;2.87;;;26.30;46.60;;;;;;4964586;28;20517;-67
2021/06/08 09:10:22;;;;;;;6.03;3.20;;;26.40;46.60;;;;;;4963603;28;20236;-68
2021/06/08 09:12:53;;;;;;;4.90;2.60;;;26.40;46.30;;;;;;4985767;28;20328;-70
2021/06/08 09:15:24;;;;;;;4.13;2.23;;;26.40;46.90;;;;;;4983340;28;20251;-69
2021/06/08 09:18:03;;;;;;;4.63;2.73;;;26.40;47.40;;;;;;4985814;28;20209;-68
2021/06/08 09:20:32;;;;;;;7.20;2.43;;;26.50;47.00;;;;;;4988903;28;20222;-68
2021/06/08 09:23:05;;;;;;;5.00;2.43;;;26.60;47.40;;;;;;4986842;28;20204;-68
2021/06/08 09:25:44;;;;;;;5.27;2.30;;;26.70;46.90;;;;;;4984113;28;20234;-66
2021/06/08 09:28:25;;;;;;;4.57;2.90;;;26.70;47.00;;;;;;4991141;28;20196;-67
2021/06/08 09:31:02;;;;;;;8.47;3.50;;;26.80;46.50;;;;;;4995770;28;20200;-66
2021/06/08 09:33:36;;;;;;;7.37;3.10;;;26.90;46.00;;;;;;4985045;28;20227;-66
2021/06/08 09:36:18;;;;;;;7.00;2.53;;;26.80;46.10;;;;;;4988605;28;20207;-66
2021/06/08 09:39:03;;;;;;;6.83;3.07;;;26.90;46.20;;;;;;4984423;28;20209;-65
2021/06/08 09:41:41;;;;;;;2.97;2.40;;;26.90;46.50;;;;;;4969720;28;20231;-65
2021/06/08 09:44:20;;;;;;;2.60;2.23;;;27.00;46.60;;;;;;4989075;28;20649;-65
2021/06/08 09:46:59;;;;;;;5.37;3.07;;;27.00;46.40;;;;;;4973759;28;20221;-65
2021/06/08 09:49:35;;;;;;;6.00;2.93;;;27.10;45.90;;;;;;4977286;28;20227;-66
2021/06/08 09:52:08;;;;;;;2.90;2.57;;;27.10;45.60;;;;;;4987738;28;20196;-69
2021/06/08 09:54:44;;;;;;;3.63;2.43;;;27.20;46.10;;;;;;4990252;28;20207;-68
2021/06/08 09:57:32;;;;;;;3.40;2.40;;;27.20;46.10;;;;;;4988169;28;20205;-64
2021/06/08 10:00:12;;;;;;;2.67;2.00;;;27.20;46.00;;;;;;4970050;28;20291;-64
2021/06/08 10:03:03;;;;;;;2.47;2.20;;;27.20;45.40;;;;;;4982100;28;20527;-66
2021/06/08 10:05:36;;;;;;;2.87;2.67;;;27.20;45.20;;;;;;4984386;28;20273;-65
2021/06/08 10:08:05;;;;;;;5.47;2.70;;;27.20;45.00;;;;;;4983255;28;20574;-65
2021/06/08 10:10:36;;;;;;;3.50;2.83;;;27.30;44.60;;;;;;4978557;28;20579;-64
2021/06/08 10:13:14;;;;;;;3.03;2.83;;;27.30;45.00;;;;;;4987698;28;20197;-64
2021/06/08 10:16:07;;;;;;;5.80;2.70;;;27.30;44.80;;;;;;4989990;28;20223;-64
2021/06/08 10:19:02;;;;;;;3.50;2.83;;;27.40;44.90;;;;;;4970601;28;20219;-63
2021/06/08 10:21:50;;;;;;;2.80;2.23;;;27.50;44.40;;;;;;4981768;28;20284;-64
2021/06/08 10:24:22;;;;;;;3.43;2.60;;;27.50;44.80;;;;;;4988255;28;20200;-65
2021/06/08 10:26:57;;;;;;;3.97;2.30;;;27.50;44.30;;;;;;4984575;28;20238;-65
2021/06/08 10:29:28;;;;;;;6.37;2.63;;;27.60;44.50;;;;;;4986410;28;20641;-65
2021/06/08 10:31:59;;;;;;;6.27;2.93;;;27.60;44.30;;;;;;4980447;28;20292;-66
2021/06/08 10:34:46;;;;;;;2.90;2.60;;;27.70;44.00;;;;;;4987612;28;20287;-66
2021/06/08 10:37:18;;;;;;;5.33;3.27;;;27.70;44.20;;;;;;4982009;28;20207;-64
2021/06/08 10:40:11;;;;;;;3.40;3.07;;;27.70;43.10;;;;;;4971293;28;20200;-65
2021/06/08 10:42:38;;;;;;;2.33;2.13;;;27.70;43.10;;;;;;4984104;28;20208;-64
2021/06/08 10:45:20;;;;;;;2.37;2.17;;;27.70;43.80;;;;;;4985203;28;20224;-63
2021/06/08 10:48:04;;;;;;;3.07;2.77;;;27.80;44.00;;;;;;4984417;28;20263;-66
2021/06/08 10:50:36;;;;;;;2.43;2.23;;;27.80;43.60;;;;;;4980384;28;20267;-65
2021/06/08 10:53:08;;;;;;;4.60;2.87;;;27.80;44.00;;;;;;4986597;28;20214;-66
2021/06/08 10:55:41;;;;;;;5.20;3.17;;;27.90;43.40;;;;;;4984109;28;20204;-68
2021/06/08 10:58:53;;;;;;;5.67;3.00;;;27.90;43.30;;;;;;4985486;28;20208;-67
2021/06/08 11:01:41;;;;;;;4.27;2.30;;;27.90;43.50;;;;;;4982989;28;20628;-67
2021/06/08 11:04:14;;;;;;;7.93;2.57;;;27.90;43.80;;;;;;4986489;28;20226;-67
2021/06/08 11:07:07;;;;;;;3.13;2.83;;;28.00;43.90;;;;;;4989351;28;20226;-66
2021/06/08 11:09:37;;;;;;;2.93;2.73;;;28.00;42.80;;;;;;4982777;28;20202;-66
2021/06/08 11:12:23;;;;;;;4.57;2.60;;;28.00;42.40;;;;;;4976506;28;20287;-67
2021/06/08 11:14:58;;;;;;;3.33;2.60;;;28.00;42.10;;;;;;4984469;28;20212;-66
2021/06/08 11:17:32;;;;;;;3.77;3.00;;;28.00;42.70;;;;;;4969449;28;20246;-66
2021/06/08 11:20:14;;;;;;;4.47;2.63;;;28.10;42.40;;;;;;4987111;28;20216;-66
2021/06/08 11:22:51;;;;;;;3.40;2.70;;;28.10;42.50;;;;;;4986839;28;20205;-65
2021/06/08 11:25:51;;;;;;;3.47;2.60;;;28.10;42.00;;;;;;4986820;28;20202;-65
2021/06/08 11:28:20;;;;;;;3.17;2.97;;;28.20;42.00;;;;;;4983784;28;20207;-65
2021/06/08 11:31:03;;;;;;;3.40;3.10;;;28.10;41.30;;;;;;4963789;28;20213;-66
2021/06/08 11:34:12;;;;;;;3.57;3.20;;;28.20;41.30;;;;;;4989385;28;20279;-65
2021/06/08 11:36:43;;;;;;;4.37;2.80;;;28.20;41.10;;;;;;4993311;28;20211;-65
2021/06/08 11:39:25;;;;;;;3.97;2.90;;;28.10;41.00;;;;;;4983770;28;20208;-65
2021/06/08 11:42:04;;;;;;;4.10;2.63;;;28.20;41.50;;;;;;4978244;28;20203;-67
2021/06/08 11:44:32;;;;;;;2.93;2.33;;;28.20;42.20;;;;;;4984621;28;20205;-67
2021/06/08 11:47:04;;;;;;;3.43;2.87;;;28.30;43.00;;;;;;4989855;28;20223;-65
2021/06/08 11:49:36;;;;;;;10.57;3.00;;;28.30;43.10;;;;;;4979017;28;20229;-65
2021/06/08 11:52:09;;;;;;;3.90;3.40;;;28.40;42.40;;;;;;4987746;28;20227;-66
2021/06/08 11:54:48;;;;;;;5.20;3.30;;;28.40;42.10;;;;;;4984898;28;20192;-65
2021/06/08 11:57:37;;;;;;;2.90;2.70;;;28.40;42.10;;;;;;4982120;28;20227;-65
2021/06/08 12:00:11;;;;;;;4.97;3.37;;;28.40;43.00;;;;;;4977562;28;20189;-66
2021/06/08 12:02:48;;;;;;;3.87;3.07;;;28.50;42.60;;;;;;4983712;28;20216;-65
2021/06/08 12:05:42;;;;;;;3.17;2.97;;;28.50;42.20;;;;;;4969433;28;20299;-65
2021/06/08 12:08:40;;;;;;;3.10;2.90;;;28.50;42.10;;;;;;4985026;28;20303;-65
2021/06/08 12:11:15;;;;;;;5.67;2.73;;;28.60;42.50;;;;;;4966978;28;20233;-65
2021/06/08 12:13:46;;;;;;;3.27;3.07;;;28.50;42.80;;;;;;4962476;28;20702;-66
2021/06/08 12:16:17;;;;;;;3.53;3.23;;;28.60;42.80;;;;;;4970109;28;20209;-66
2021/06/08 12:18:47;;;;;;;6.37;2.97;;;28.60;42.80;;;;;;4972035;28;20466;-69
2021/06/08 12:21:20;;;;;;;4.80;4.00;;;28.60;42.60;;;;;;4966713;28;20257;-69
2021/06/08 12:23:54;;;;;;;3.53;3.23;;;28.60;41.40;;;;;;4968013;28;20212;-69
2021/06/08 12:26:28;;;;;;;5.80;3.20;;;28.60;42.00;;;;;;4952373;28;20816;-70
2021/06/08 12:29:15;;;;;;;4.20;2.80;;;28.60;42.80;;;;;;4963274;28;20196;-70
2021/06/08 12:32:03;;;;;;;2.90;2.60;;;28.40;41.10;;;;;;4965667;28;20605;-69
2021/06/08 12:34:37;;;;;;;2.90;2.40;;;28.00;40.60;;;;;;4935194;28;20248;-69
2021/06/08 12:37:06;;;;;;;3.40;2.70;;;27.80;40.90;;;;;;4962118;28;20543;-70
2021/06/08 12:39:35;;;;;;;2.80;2.40;;;27.50;40.90;;;;;;4944951;28;20572;-70
2021/06/08 12:42:26;;;;;;;2.67;2.47;;;27.10;41.30;;;;;;4963390;28;20643;-70
2021/06/08 12:44:57;;;;;;;2.10;2.00;;;26.70;41.60;;;;;;4964535;28;20205;-70
2021/06/08 12:47:33;;;;;;;3.40;2.50;;;26.40;42.10;;;;;;4959152;28;20250;-69
2021/06/08 12:50:18;;;;;;;2.40;2.20;;;26.10;42.30;;;;;;4962562;28;20209;-69
2021/06/08 12:53:02;;;;;;;2.47;2.27;;;26.00;42.60;;;;;;4947550;28;20205;-68
2021/06/08 12:55:33;;;;;;;2.77;2.57;;;25.80;43.20;;;;;;4965195;28;20197;-69
2021/06/08 12:58:04;;;;;;;2.73;2.53;;;25.70;43.40;;;;;;4948108;28;20523;-70
2021/06/08 13:00:35;;;;;;;2.67;2.47;;;25.60;43.70;;;;;;4968874;28;20193;-64
2021/06/08 13:03:10;;;;;;;2.50;2.30;;;25.50;43.80;;;;;;4953692;28;20229;-67
2021/06/08 13:05:41;;;;;;;2.73;2.23;;;25.40;43.20;;;;;;4960813;28;20215;-67
2021/06/08 13:08:17;;;;;;;2.83;2.43;;;25.50;42.40;;;;;;4954097;28;20593;-66
2021/06/08 13:10:47;;;;;;;2.80;2.43;;;25.50;42.00;;;;;;4976605;28;20550;-66
2021/06/08 13:13:19;;;;;;;9.87;2.80;;;25.40;41.70;;;;;;4979202;28;20215;-65
2021/06/08 13:15:50;;;;;;;3.93;2.20;;;25.40;41.50;;;;;;4987274;28;20710;-65
2021/06/08 13:18:23;;;;;;;2.57;2.37;;;25.40;41.10;;;;;;4971693;28;20563;-66
2021/06/08 13:20:55;;;;;;;2.43;2.23;;;25.30;41.00;;;;;;4986064;28;20275;-65
2021/06/08 13:23:33;;;;;;;3.93;2.30;;;25.30;41.10;;;;;;4964804;28;20189;-65
2021/06/08 13:26:11;;;;;;;2.37;2.10;;;25.20;41.00;;;;;;4953166;28;20209;-65
2021/06/08 13:28:49;;;;;;;4.23;2.17;;;25.30;44.60;;;;;;4997765;28;20715;-65
2021/06/08 13:31:20;;;;;;;5.40;2.40;;;25.50;48.10;;;;;;4988892;28;20857;-66
2021/06/08 13:33:51;;;;;;;2.37;2.23;;;25.60;49.90;;;;;;4978812;28;20391;-66